Time;durP1;ratioP1;P1;durP2;ratioP2;P2;SDS_P1;SDS_P2;PMS_P1;PMS_P2;Temp;Humidity;BMP_temperature;BMP_pressure;BME280_temperature;BME280_humidity;BME280_pressure;Samples;Min_cycle;Max_cycle;Signal;HPM_P1;HPM_P2
2023/01/09 00:00:40;;;;;;;15.38;2.67;;;8.10;99.90;;;;;;6270882;22;20038;-89
2023/01/09 00:03:06;;;;;;;15.73;2.80;;;8.30;99.90;;;;;;6272196;22;20004;-91
2023/01/09 00:05:32;;;;;;;17.08;3.28;;;8.30;99.90;;;;;;6271828;22;20000;-89
2023/01/09 00:07:58;;;;;;;17.45;3.22;;;8.40;99.90;;;;;;6272267;22;20000;-91
2023/01/09 00:10:24;;;;;;;16.52;3.30;;;8.40;99.90;;;;;;6270617;22;20078;-89
2023/01/09 00:12:49;;;;;;;15.73;2.90;;;8.40;99.90;;;;;;6270834;22;20344;-92
2023/01/09 00:15:16;;;;;;;16.00;2.80;;;8.50;99.90;;;;;;6270650;22;20039;-90
2023/01/09 00:17:41;;;;;;;18.10;3.45;;;8.30;99.90;;;;;;6270081;22;20004;-91
2023/01/09 00:20:09;;;;;;;17.05;2.85;;;8.40;99.90;;;;;;6271282;22;20099;-90
2023/01/09 00:22:36;;;;;;;12.35;2.40;;;8.30;99.90;;;;;;6273611;22;20004;-91
2023/01/09 00:25:03;;;;;;;12.48;2.42;;;8.30;99.90;;;;;;6247810;22;20436;-92
2023/01/09 00:27:33;;;;;;;10.15;2.33;;;8.30;99.90;;;;;;6246524;22;20048;-89
2023/01/09 00:29:59;;;;;;;14.25;2.35;;;8.30;99.90;;;;;;6247310;22;20004;-90
2023/01/09 00:32:25;;;;;;;10.43;2.30;;;8.30;99.90;;;;;;6247549;22;20058;-90
2023/01/09 00:34:52;;;;;;;11.80;2.10;;;8.20;99.90;;;;;;6274162;22;20000;-88
2023/01/09 00:37:17;;;;;;;12.30;2.30;;;8.30;99.90;;;;;;6247133;22;20004;-91
2023/01/09 00:39:43;;;;;;;11.82;2.78;;;8.30;99.90;;;;;;6247496;22;20012;-90
2023/01/09 00:42:19;;;;;;;6.93;2.00;;;8.50;99.90;;;;;;6247503;22;20134;-91
2023/01/09 00:44:49;;;;;;;11.00;2.10;;;8.20;99.90;;;;;;6246823;22;20389;-90
2023/01/09 00:47:29;;;;;;;14.13;2.25;;;8.30;99.90;;;;;;6246776;22;20004;-89
2023/01/09 00:50:05;;;;;;;11.05;1.80;;;8.30;99.90;;;;;;6246633;22;20082;-89
2023/01/09 00:52:33;;;;;;;10.60;2.30;;;8.30;99.90;;;;;;6247066;22;20012;-89
2023/01/09 00:54:59;;;;;;;7.75;2.00;;;8.40;99.90;;;;;;6247363;22;20007;-90
2023/01/09 00:57:27;;;;;;;8.30;1.83;;;8.40;99.90;;;;;;6248372;22;20337;-89
2023/01/09 00:59:53;;;;;;;7.03;2.03;;;8.30;99.90;;;;;;6247832;22;20015;-89
2023/01/09 01:02:19;;;;;;;10.07;1.90;;;8.30;99.90;;;;;;6273207;22;20027;-91
2023/01/09 01:07:37;;;;;;;10.95;2.10;;;8.40;99.90;;;;;;6273557;22;20563;-90
2023/01/09 01:10:07;;;;;;;6.22;1.70;;;8.30;99.90;;;;;;6247516;22;20015;-90
2023/01/09 01:12:32;;;;;;;9.95;1.85;;;8.30;99.90;;;;;;6247551;22;20058;-89
2023/01/09 01:14:58;;;;;;;10.05;1.85;;;8.30;99.90;;;;;;6246787;22;20440;-90
2023/01/09 01:17:24;;;;;;;6.22;1.35;;;8.20;99.90;;;;;;6246024;22;20003;-92
2023/01/09 01:19:49;;;;;;;6.82;1.50;;;8.20;99.90;;;;;;6246419;22;20015;-88
2023/01/09 01:22:15;;;;;;;4.15;1.55;;;8.30;99.90;;;;;;6245924;22;20053;-89
2023/01/09 01:24:41;;;;;;;5.25;1.50;;;8.10;99.90;;;;;;6270551;22;20022;-89
2023/01/09 01:27:07;;;;;;;7.82;1.52;;;8.00;99.90;;;;;;6274636;22;20391;-89
2023/01/09 01:29:33;;;;;;;5.28;1.40;;;8.00;99.90;;;;;;6272901;22;20325;-89
2023/01/09 01:31:58;;;;;;;6.57;1.83;;;8.00;99.90;;;;;;6271835;22;20057;-90
2023/01/09 01:34:24;;;;;;;4.28;1.40;;;7.90;99.90;;;;;;6271203;22;20003;-88
2023/01/09 01:36:50;;;;;;;6.00;1.63;;;7.80;99.90;;;;;;6272205;22;20007;-89
2023/01/09 01:39:16;;;;;;;1.70;0.90;;;7.80;99.90;;;;;;6273541;22;20018;-89
2023/01/09 01:41:41;;;;;;;4.68;1.50;;;7.80;99.90;;;;;;6272214;22;20348;-89
2023/01/09 01:44:46;;;;;;;4.95;1.63;;;7.70;99.90;;;;;;6274029;22;20313;-89
2023/01/09 01:47:12;;;;;;;7.55;1.58;;;7.70;99.90;;;;;;6271998;22;19999;-91
2023/01/09 01:49:38;;;;;;;3.38;1.10;;;7.70;99.90;;;;;;6272483;22;20322;-90
2023/01/09 01:52:03;;;;;;;6.68;1.27;;;7.60;99.90;;;;;;6272785;22;20061;-89
2023/01/09 01:54:31;;;;;;;2.47;1.52;;;7.50;99.90;;;;;;6271331;22;20000;-90
2023/01/09 01:57:02;;;;;;;7.45;1.63;;;7.50;99.90;;;;;;6271751;22;20285;-89
2023/01/09 01:59:49;;;;;;;6.00;1.60;;;7.80;99.90;;;;;;6271472;22;20405;-89
2023/01/09 02:02:22;;;;;;;3.60;1.00;;;7.50;99.90;;;;;;6271996;22;20000;-90
2023/01/09 02:04:51;;;;;;;8.93;1.58;;;7.60;99.90;;;;;;6274239;22;20006;-89
2023/01/09 02:07:17;;;;;;;4.95;1.88;;;7.70;99.90;;;;;;6273075;22;20432;-90
2023/01/09 02:09:45;;;;;;;5.57;1.35;;;7.90;99.90;;;;;;6283201;22;19991;-88
2023/01/09 02:12:22;;;;;;;5.35;1.65;;;7.60;99.90;;;;;;6301145;22;20035;-91
2023/01/09 02:15:00;;;;;;;6.28;1.48;;;7.50;99.90;;;;;;6299633;22;19990;-89
2023/01/09 02:17:35;;;;;;;5.65;1.25;;;7.60;99.90;;;;;;6283868;22;20014;-89
2023/01/09 02:20:29;;;;;;;8.40;2.08;;;7.40;99.90;;;;;;6273539;22;20368;-89
2023/01/09 02:23:26;;;;;;;8.60;1.80;;;7.40;99.90;;;;;;6273232;22;20054;-90
2023/01/09 02:26:34;;;;;;;8.48;1.73;;;7.40;99.90;;;;;;6245991;22;20035;-88
2023/01/09 02:29:22;;;;;;;7.05;1.60;;;7.40;99.90;;;;;;6226956;22;20011;-90
2023/01/09 02:32:01;;;;;;;11.35;2.00;;;7.30;99.90;;;;;;6245929;22;20317;-90
2023/01/09 02:34:58;;;;;;;6.72;1.80;;;7.40;99.90;;;;;;6245602;22;20357;-90
2023/01/09 02:37:45;;;;;;;6.32;1.70;;;7.30;99.90;;;;;;6245154;22;20011;-89
2023/01/09 02:40:29;;;;;;;6.95;1.73;;;7.40;99.90;;;;;;6245423;22;20016;-88
2023/01/09 02:42:57;;;;;;;8.15;1.60;;;7.40;99.90;;;;;;6245675;22;20004;-89
2023/01/09 02:45:23;;;;;;;6.75;1.40;;;7.30;99.90;;;;;;6245467;22;20004;-90
2023/01/09 02:47:49;;;;;;;4.55;1.40;;;7.40;99.90;;;;;;6245810;22;20478;-89
2023/01/09 02:50:22;;;;;;;8.45;1.50;;;7.40;99.90;;;;;;6245049;22;20053;-88
2023/01/09 02:52:48;;;;;;;6.72;1.48;;;7.40;99.90;;;;;;6245230;22;20386;-88
2023/01/09 02:55:33;;;;;;;7.38;1.48;;;7.60;99.90;;;;;;6245215;22;20046;-88
2023/01/09 02:58:10;;;;;;;8.60;1.77;;;7.30;99.90;;;;;;6245203;22;20077;-90
2023/01/09 03:01:06;;;;;;;9.82;1.58;;;7.40;99.90;;;;;;6246544;22;20344;-90
2023/01/09 03:03:45;;;;;;;6.47;1.83;;;7.40;99.90;;;;;;6246103;22;20424;-89
2023/01/09 03:06:30;;;;;;;9.18;1.50;;;7.50;99.90;;;;;;6245040;22;20015;-89
2023/01/09 03:09:01;;;;;;;7.57;1.88;;;7.40;99.90;;;;;;6272585;22;20000;-89
2023/01/09 03:11:32;;;;;;;5.63;1.50;;;7.40;99.90;;;;;;6244461;22;20455;-90
2023/01/09 03:14:05;;;;;;;6.82;1.70;;;7.40;99.90;;;;;;6244631;22;20053;-90
2023/01/09 03:16:37;;;;;;;6.72;1.75;;;7.80;99.90;;;;;;6244688;22;20204;-90
2023/01/09 03:19:10;;;;;;;10.15;2.03;;;7.40;99.90;;;;;;6272629;22;20419;-90
2023/01/09 03:21:37;;;;;;;6.85;2.55;;;7.50;99.90;;;;;;6246038;22;20407;-90
2023/01/09 03:24:03;;;;;;;8.30;1.92;;;7.50;99.90;;;;;;6261916;22;20031;-88
2023/01/09 03:26:30;;;;;;;9.73;2.53;;;7.30;99.90;;;;;;6271169;22;19996;-88
2023/01/09 03:28:57;;;;;;;9.07;2.10;;;7.30;99.90;;;;;;6270500;22;20007;-90
2023/01/09 03:31:23;;;;;;;11.23;2.53;;;7.60;99.90;;;;;;6269949;22;20347;-89
2023/01/09 03:33:48;;;;;;;9.10;2.20;;;7.30;99.90;;;;;;6270685;22;20028;-89
2023/01/09 03:36:16;;;;;;;11.35;2.33;;;7.30;99.90;;;;;;6270141;22;20344;-89
2023/01/09 03:38:42;;;;;;;12.82;2.65;;;7.40;99.90;;;;;;6270629;22;20016;-89
2023/01/09 03:41:08;;;;;;;10.52;2.70;;;7.30;99.90;;;;;;6270425;22;20063;-89
2023/01/09 03:43:34;;;;;;;14.27;3.25;;;7.40;99.90;;;;;;6272017;22;20038;-89
2023/01/09 03:46:00;;;;;;;10.10;2.40;;;7.30;99.90;;;;;;6272270;22;19995;-90
2023/01/09 03:48:26;;;;;;;12.98;2.30;;;7.30;99.90;;;;;;6269935;22;20004;-89
2023/01/09 03:50:53;;;;;;;12.50;2.30;;;7.30;99.90;;;;;;6270348;22;20091;-88
2023/01/09 03:53:21;;;;;;;10.82;2.60;;;7.30;99.90;;;;;;6270376;22;20035;-89
2023/01/09 03:55:49;;;;;;;12.95;2.58;;;7.60;99.90;;;;;;6270356;22;20003;-91
2023/01/09 03:58:15;;;;;;;12.85;3.10;;;7.50;99.90;;;;;;6269919;22;20007;-89
2023/01/09 04:00:41;;;;;;;13.77;2.78;;;7.60;99.90;;;;;;6270034;22;20015;-90
2023/01/09 04:03:08;;;;;;;12.80;2.40;;;7.40;99.90;;;;;;6270567;22;20004;-88
2023/01/09 04:05:34;;;;;;;17.13;2.65;;;7.50;99.90;;;;;;6271199;22;20011;-89
2023/01/09 04:08:01;;;;;;;13.32;2.65;;;7.30;99.90;;;;;;6270536;22;20004;-89
2023/01/09 04:10:26;;;;;;;10.80;2.25;;;7.30;99.90;;;;;;6270031;22;20340;-89
2023/01/09 04:12:52;;;;;;;13.63;2.72;;;7.30;99.90;;;;;;6270130;22;20087;-90
2023/01/09 04:15:18;;;;;;;10.90;1.90;;;7.30;99.90;;;;;;6270117;22;20074;-88
2023/01/09 04:17:43;;;;;;;11.05;2.08;;;7.30;99.90;;;;;;6269494;22;20004;-89
2023/01/09 04:20:09;;;;;;;12.93;2.33;;;7.20;99.90;;;;;;6269773;22;20011;-90
2023/01/09 04:22:35;;;;;;;13.55;2.55;;;7.30;99.90;;;;;;6271012;22;20004;-89
2023/01/09 04:25:01;;;;;;;16.08;2.83;;;7.30;99.90;;;;;;6244557;22;20019;-89
2023/01/09 04:27:27;;;;;;;14.75;2.35;;;7.20;99.90;;;;;;6243850;22;20180;-90
2023/01/09 04:29:52;;;;;;;14.75;3.25;;;7.30;99.90;;;;;;6244223;22;20057;-89
2023/01/09 04:32:18;;;;;;;11.32;1.95;;;7.60;99.90;;;;;;6244448;22;20412;-89
2023/01/09 04:34:44;;;;;;;10.45;2.20;;;7.20;99.90;;;;;;6244534;22;20053;-89
2023/01/09 04:37:10;;;;;;;10.77;2.85;;;7.30;99.90;;;;;;6244189;22;20007;-88
2023/01/09 04:39:36;;;;;;;11.38;2.13;;;7.50;99.90;;;;;;6245289;22;20012;-88
2023/01/09 04:42:02;;;;;;;10.90;1.90;;;7.10;99.90;;;;;;6244318;22;20008;-89
2023/01/09 04:44:27;;;;;;;12.82;1.88;;;7.10;99.90;;;;;;6244475;22;20158;-89
2023/01/09 04:46:55;;;;;;;10.15;2.28;;;7.00;99.90;;;;;;6244873;22;20000;-89
2023/01/09 04:49:21;;;;;;;10.07;1.97;;;7.00;99.90;;;;;;6244576;22;20015;-89
2023/01/09 04:51:48;;;;;;;9.43;1.98;;;6.90;99.90;;;;;;6271415;22;20425;-90
2023/01/09 04:54:13;;;;;;;11.23;1.85;;;7.00;99.90;;;;;;6244803;22;20008;-91
2023/01/09 04:56:39;;;;;;;8.55;1.80;;;6.80;99.90;;;;;;6244663;22;20022;-88
2023/01/09 04:59:05;;;;;;;9.75;2.15;;;6.90;99.90;;;;;;6245694;22;20040;-88
2023/01/09 05:01:31;;;;;;;11.27;1.80;;;7.50;99.90;;;;;;6271312;22;20012;-89
2023/01/09 05:03:57;;;;;;;8.27;1.75;;;7.00;99.90;;;;;;6244705;22;20019;-89
2023/01/09 05:06:23;;;;;;;9.88;1.88;;;6.90;99.90;;;;;;6246409;22;20000;-89
2023/01/09 05:08:49;;;;;;;10.70;2.45;;;6.90;99.90;;;;;;6247462;22;20321;-90
2023/01/09 05:11:17;;;;;;;9.40;1.90;;;6.90;99.90;;;;;;6246665;22;20004;-92
2023/01/09 05:13:43;;;;;;;6.95;1.80;;;6.90;99.90;;;;;;6246687;22;20444;-90
2023/01/09 05:16:15;;;;;;;10.38;2.13;;;6.80;99.90;;;;;;6247570;22;20058;-89
2023/01/09 05:18:40;;;;;;;10.93;2.00;;;6.80;99.90;;;;;;6246577;22;20015;-89
2023/01/09 05:21:06;;;;;;;11.32;1.92;;;7.00;99.90;;;;;;6246976;22;20082;-90
2023/01/09 05:23:32;;;;;;;13.30;2.28;;;6.90;99.90;;;;;;6246701;22;20378;-90
2023/01/09 05:25:57;;;;;;;10.63;1.98;;;7.20;99.90;;;;;;6271855;22;20002;-90
2023/01/09 05:28:23;;;;;;;9.68;2.20;;;7.10;99.90;;;;;;6271813;22;20042;-90
2023/01/09 05:30:49;;;;;;;10.65;2.08;;;7.10;99.90;;;;;;6270869;22;20007;-88
2023/01/09 05:33:14;;;;;;;8.35;1.90;;;6.80;99.90;;;;;;6270778;22;20045;-89
2023/01/09 05:35:40;;;;;;;14.50;2.92;;;7.00;99.90;;;;;;6270838;22;20098;-88
2023/01/09 05:38:05;;;;;;;10.75;1.95;;;6.70;99.90;;;;;;6271903;22;20348;-89
2023/01/09 05:40:31;;;;;;;10.00;2.00;;;6.80;99.90;;;;;;6272301;22;20082;-89
2023/01/09 05:42:57;;;;;;;6.72;1.98;;;6.60;99.90;;;;;;6270996;22;20000;-90
2023/01/09 05:45:23;;;;;;;10.85;2.03;;;7.20;99.90;;;;;;6271730;22;20004;-91
2023/01/09 05:47:48;;;;;;;13.52;2.05;;;6.70;99.90;;;;;;6273148;22;20000;-88
2023/01/09 05:50:23;;;;;;;14.90;2.50;;;6.70;99.90;;;;;;6271413;22;20031;-90
2023/01/09 05:52:49;;;;;;;12.63;2.13;;;6.70;99.90;;;;;;6271359;22;19999;-89
2023/01/09 05:55:15;;;;;;;11.48;2.35;;;6.80;99.90;;;;;;6273029;22;20027;-90
2023/01/09 05:57:41;;;;;;;13.90;2.83;;;6.70;99.90;;;;;;6271760;22;20039;-89
2023/01/09 06:00:07;;;;;;;14.02;2.20;;;6.70;99.90;;;;;;6272554;22;20519;-89
2023/01/09 06:02:32;;;;;;;12.15;2.15;;;6.70;99.90;;;;;;6271237;22;20089;-89
2023/01/09 06:04:58;;;;;;;11.20;2.75;;;6.60;99.90;;;;;;6271639;22;20386;-89
2023/01/09 06:10:19;;;;;;;14.88;2.83;;;6.60;99.90;;;;;;6262597;22;20020;-90
2023/01/09 06:13:13;;;;;;;10.95;2.65;;;6.60;99.90;;;;;;6273430;22;20071;-89
2023/01/09 06:15:38;;;;;;;14.05;2.25;;;6.90;99.90;;;;;;6274936;22;20075;-93
2023/01/09 06:18:04;;;;;;;9.40;2.20;;;6.60;99.90;;;;;;6271495;22;20039;-91
2023/01/09 06:20:31;;;;;;;10.73;2.88;;;6.50;99.90;;;;;;6271810;22;20230;-89
2023/01/09 06:22:59;;;;;;;9.55;2.03;;;6.80;99.90;;;;;;6271495;22;20082;-91
2023/01/09 06:25:25;;;;;;;12.88;2.13;;;6.60;99.90;;;;;;6272090;22;20008;-92
2023/01/09 06:27:51;;;;;;;8.98;2.05;;;6.70;99.90;;;;;;6271695;22;20051;-90
2023/01/09 06:30:38;;;;;;;;;;;;;;;;;;;;;
2023/01/09 06:33:34;;;;;;;;;;;;;;;;;;;;;
2023/01/09 06:36:10;;;;;;;13.35;3.22;;;6.50;99.90;;;;;;6274234;22;20059;-91
2023/01/09 06:42:03;;;;;;;11.85;2.00;;;6.40;99.90;;;;;;6210561;23;20004;-91
2023/01/09 06:44:39;;;;;;;;;;;;;;;;;;;;;
2023/01/09 06:47:14;;;;;;;11.93;2.30;;;6.40;99.90;;;;;;6273515;22;20091;-90
2023/01/09 06:49:50;;;;;;;;;;;;;;;;;;;;;
2023/01/09 06:52:16;;;;;;;14.23;2.35;;;6.10;99.90;;;;;;6273788;22;20083;-91
2023/01/09 06:54:45;;;;;;;9.75;2.30;;;6.10;99.90;;;;;;6273073;22;20031;-92
2023/01/09 06:57:18;;;;;;;9.38;2.05;;;6.10;99.90;;;;;;6273254;22;20439;-91
2023/01/09 06:59:43;;;;;;;7.20;2.05;;;6.20;99.90;;;;;;6271059;22;20012;-90
2023/01/09 07:02:32;;;;;;;8.38;2.08;;;6.20;99.90;;;;;;6273129;22;20056;-91
2023/01/09 07:05:10;;;;;;;;;;;;;;;;;;;;;
2023/01/09 07:08:01;;;;;;;10.32;1.88;;;6.30;99.90;;;;;;6273742;22;19985;-91
2023/01/09 07:10:30;;;;;;;13.32;1.85;;;6.30;99.90;;;;;;6249237;22;20500;-91
2023/01/09 07:12:56;;;;;;;12.75;1.85;;;6.60;99.90;;;;;;6272320;22;20011;-91
2023/01/09 07:15:21;;;;;;;7.97;1.73;;;6.80;99.90;;;;;;6271849;22;20004;-90
2023/01/09 07:17:52;;;;;;;12.10;2.20;;;6.40;99.90;;;;;;6271256;22;20341;-89
2023/01/09 07:20:18;;;;;;;15.85;2.65;;;6.50;99.90;;;;;;6271510;22;20027;-90
2023/01/09 07:22:47;;;;;;;16.05;2.47;;;6.40;99.90;;;;;;6272251;22;20089;-90
2023/01/09 07:25:13;;;;;;;13.82;2.40;;;6.60;99.90;;;;;;6248470;22;20436;-89
2023/01/09 07:27:38;;;;;;;12.88;2.30;;;6.50;99.90;;;;;;6266828;22;19994;-90
2023/01/09 07:30:05;;;;;;;6.30;2.00;;;6.70;99.90;;;;;;6273324;22;20252;-90
2023/01/09 07:32:32;;;;;;;11.75;2.38;;;6.50;99.90;;;;;;6275046;22;19994;-88
2023/01/09 07:35:00;;;;;;;12.40;2.25;;;6.50;99.90;;;;;;6252424;22;20004;-90
2023/01/09 07:37:26;;;;;;;9.23;2.33;;;6.50;99.90;;;;;;6277060;22;20006;-90
2023/01/09 07:39:51;;;;;;;11.07;2.10;;;6.50;99.90;;;;;;6247444;22;20098;-91
2023/01/09 07:42:19;;;;;;;17.67;2.70;;;6.40;99.90;;;;;;6273159;22;20075;-89
2023/01/09 07:44:49;;;;;;;16.60;2.47;;;6.60;99.90;;;;;;6245436;22;20476;-90
2023/01/09 07:47:15;;;;;;;10.20;2.17;;;6.30;99.90;;;;;;6246411;22;20010;-91
2023/01/09 07:49:40;;;;;;;12.15;3.05;;;6.30;99.90;;;;;;6246135;22;20078;-90
2023/01/09 07:52:06;;;;;;;9.82;2.63;;;6.20;99.90;;;;;;6245848;22;20018;-92
2023/01/09 07:54:32;;;;;;;9.40;2.30;;;6.50;99.90;;;;;;6245818;22;20007;-90
2023/01/09 07:56:57;;;;;;;10.88;2.50;;;6.40;99.90;;;;;;6245768;22;20091;-91
2023/01/09 07:59:26;;;;;;;10.15;2.30;;;6.60;99.90;;;;;;6245238;22;20011;-92
2023/01/09 08:01:52;;;;;;;10.27;2.10;;;6.30;99.90;;;;;;6272500;22;20390;-90
2023/01/09 08:04:17;;;;;;;10.07;2.35;;;6.40;99.90;;;;;;6244735;22;20010;-90
2023/01/09 08:06:45;;;;;;;10.25;2.47;;;6.30;99.90;;;;;;6246823;22;20065;-90
2023/01/09 08:09:13;;;;;;;13.25;2.28;;;6.20;99.90;;;;;;6245668;22;20329;-90
2023/01/09 08:11:40;;;;;;;7.60;2.17;;;6.30;99.90;;;;;;6244893;22;20440;-89
2023/01/09 08:14:05;;;;;;;10.90;2.80;;;6.20;99.90;;;;;;6245922;22;20014;-90
2023/01/09 08:16:31;;;;;;;13.68;2.20;;;6.10;99.90;;;;;;6245678;22;20027;-91
2023/01/09 08:18:57;;;;;;;11.32;2.40;;;6.10;99.90;;;;;;6245158;22;20343;-90
2023/01/09 08:21:22;;;;;;;7.88;2.13;;;6.10;99.90;;;;;;6246077;22;20011;-90
2023/01/09 08:23:48;;;;;;;10.30;2.00;;;6.50;99.90;;;;;;6272620;22;20122;-89
2023/01/09 08:26:17;;;;;;;11.65;2.25;;;6.20;99.90;;;;;;6273037;22;20340;-90
2023/01/09 08:28:45;;;;;;;10.50;2.00;;;6.30;99.90;;;;;;6245626;22;19999;-92
2023/01/09 08:31:13;;;;;;;13.50;2.60;;;6.30;99.90;;;;;;6245496;22;20458;-89
2023/01/09 08:33:39;;;;;;;13.60;2.30;;;6.30;99.90;;;;;;6245539;22;20004;-91
2023/01/09 08:36:08;;;;;;;10.95;2.38;;;6.50;99.90;;;;;;6244972;22;20027;-90
2023/01/09 08:38:36;;;;;;;11.32;2.28;;;6.50;99.90;;;;;;6245674;22;20008;-91
2023/01/09 08:47:04;;;;;;;6.30;1.73;;;6.50;99.90;;;;;;6245312;22;20007;-90
2023/01/09 08:49:22;;;;;;;8.18;1.90;;;6.70;99.90;;;;;;6274813;22;20011;-90
2023/01/09 08:51:58;;;;;;;10.73;2.20;;;6.70;99.90;;;;;;6248408;22;20479;-90
2023/01/09 08:54:24;;;;;;;9.05;2.03;;;6.60;99.90;;;;;;6246933;22;20014;-90
2023/01/09 08:56:50;;;;;;;12.40;2.25;;;6.80;99.90;;;;;;6248450;22;20007;-89
2023/01/09 08:59:16;;;;;;;11.90;2.20;;;6.90;99.90;;;;;;6248512;22;20015;-90
2023/01/09 09:01:42;;;;;;;23.58;2.55;;;6.60;99.90;;;;;;6247661;22;20010;-90
2023/01/09 09:04:09;;;;;;;11.90;2.35;;;6.60;99.90;;;;;;6247886;22;20031;-91
2023/01/09 09:06:40;;;;;;;13.00;1.87;;;6.70;99.90;;;;;;6247836;22;20003;-91
2023/01/09 09:09:11;;;;;;;9.10;2.05;;;6.60;99.90;;;;;;6247359;22;20008;-90
2023/01/09 09:11:37;;;;;;;10.45;2.38;;;6.70;99.90;;;;;;6246932;22;20004;-91
2023/01/09 09:16:51;;;;;;;10.18;2.42;;;6.70;99.90;;;;;;6275533;22;20011;-91
2023/01/09 09:19:19;;;;;;;12.05;2.33;;;6.70;99.90;;;;;;6248269;22;20094;-91
2023/01/09 09:21:53;;;;;;;8.52;2.03;;;6.70;99.90;;;;;;6249417;22;20451;-91
2023/01/09 09:24:22;;;;;;;5.03;1.75;;;6.70;99.90;;;;;;6269521;22;20011;-90
2023/01/09 09:26:48;;;;;;;13.50;2.65;;;6.70;99.90;;;;;;6273281;22;19999;-91
2023/01/09 09:29:14;;;;;;;8.05;2.17;;;6.90;99.90;;;;;;6273097;22;20008;-89
2023/01/09 09:31:39;;;;;;;11.77;2.53;;;6.80;99.90;;;;;;6272449;22;20006;-90
2023/01/09 09:34:06;;;;;;;8.55;2.13;;;6.90;99.90;;;;;;6273152;22;20042;-90
2023/01/09 09:36:32;;;;;;;7.45;2.05;;;7.10;99.90;;;;;;6272746;22;20014;-89
2023/01/09 09:38:59;;;;;;;13.88;2.30;;;7.20;99.90;;;;;;6272745;22;20018;-89
2023/01/09 09:45:03;;;;;;;6.45;1.90;;;7.20;99.90;;;;;;6245201;22;20019;-90
2023/01/09 09:47:58;;;;;;;10.00;2.10;;;7.30;99.90;;;;;;6273391;22;20007;-89
2023/01/09 09:50:51;;;;;;;13.15;2.58;;;7.30;99.90;;;;;;6273357;22;20006;-91
2023/01/09 09:53:23;;;;;;;15.85;1.98;;;7.40;99.90;;;;;;6273857;22;20000;-90
2023/01/09 09:55:52;;;;;;;15.32;2.50;;;7.50;99.90;;;;;;6276573;22;20416;-90
2023/01/09 09:58:34;;;;;;;5.63;1.77;;;7.80;99.90;;;;;;6275212;22;20011;-89
2023/01/09 10:01:01;;;;;;;9.95;2.38;;;7.80;99.90;;;;;;6275499;22;20486;-90
2023/01/09 10:03:43;;;;;;;10.90;2.28;;;8.00;99.90;;;;;;6277990;22;20007;-90
2023/01/09 10:06:40;;;;;;;7.35;1.95;;;8.10;99.90;;;;;;6299948;22;20011;-90
2023/01/09 10:09:41;;;;;;;10.30;2.78;;;8.10;99.90;;;;;;6279000;22;19990;-90
2023/01/09 10:12:16;;;;;;;11.13;3.10;;;8.10;99.90;;;;;;6206020;22;20029;-90
2023/01/09 10:14:41;;;;;;;10.15;2.20;;;8.10;99.90;;;;;;6275716;22;20332;-91
2023/01/09 10:17:36;;;;;;;13.98;2.70;;;8.10;99.90;;;;;;6272796;22;20004;-91
2023/01/09 10:20:23;;;;;;;13.73;3.17;;;8.00;99.90;;;;;;6271383;22;20114;-89
2023/01/09 10:23:17;;;;;;;8.15;2.30;;;7.80;99.90;;;;;;6272764;22;20388;-90
2023/01/09 10:26:08;;;;;;;13.18;2.67;;;7.80;99.90;;;;;;6272157;22;20026;-89
2023/01/09 10:29:09;;;;;;;8.32;1.77;;;7.80;99.90;;;;;;6271864;22;20000;-90
2023/01/09 10:32:04;;;;;;;11.68;2.45;;;7.90;99.90;;;;;;6224191;22;20060;-91
2023/01/09 10:34:38;;;;;;;14.55;2.20;;;7.90;99.90;;;;;;6271662;22;20027;-89
2023/01/09 10:37:27;;;;;;;12.02;2.67;;;8.00;99.90;;;;;;6271802;22;20035;-89
2023/01/09 10:40:05;;;;;;;9.10;2.20;;;8.20;99.90;;;;;;6272202;22;20333;-91
2023/01/09 10:42:44;;;;;;;8.52;2.10;;;8.20;99.90;;;;;;6271287;22;20000;-89
2023/01/09 10:45:44;;;;;;;9.95;2.50;;;8.20;99.90;;;;;;6272016;22;20090;-89
2023/01/09 10:48:26;;;;;;;9.95;2.40;;;8.30;99.90;;;;;;6272467;22;20004;-89
2023/01/09 10:50:55;;;;;;;15.60;2.30;;;8.40;99.90;;;;;;6272731;22;20008;-90
2023/01/09 10:53:43;;;;;;;9.73;2.53;;;8.50;99.90;;;;;;6272824;22;20006;-92
2023/01/09 10:56:18;;;;;;;;;;;8.70;99.90;;;;;;6271992;22;20011;-90
2023/01/09 10:58:44;;;;;;;9.27;2.05;;;8.80;99.90;;;;;;6271225;22;19933;-90
2023/01/09 11:01:10;;;;;;;11.85;2.45;;;8.90;99.90;;;;;;6271824;22;20042;-90
2023/01/09 11:03:37;;;;;;;9.57;2.85;;;8.90;99.90;;;;;;6273151;22;19999;-91
2023/01/09 11:06:12;;;;;;;13.50;2.25;;;8.80;99.90;;;;;;6271923;22;20010;-90
2023/01/09 11:08:41;;;;;;;17.98;3.90;;;8.90;99.90;;;;;;6271978;22;20003;-90
2023/01/09 11:11:08;;;;;;;8.43;2.03;;;8.90;99.90;;;;;;6271487;22;20000;-88
2023/01/09 11:13:37;;;;;;;11.68;2.90;;;9.00;99.90;;;;;;6270916;22;20061;-90
2023/01/09 11:16:22;;;;;;;16.23;2.40;;;9.00;99.90;;;;;;6271354;22;20007;-91
2023/01/09 11:18:54;;;;;;;12.45;3.00;;;9.00;99.90;;;;;;6271219;22;20038;-88
2023/01/09 11:21:34;;;;;;;11.68;2.17;;;9.00;99.90;;;;;;6271614;22;20351;-89
2023/01/09 11:24:19;;;;;;;12.30;2.10;;;9.00;99.90;;;;;;6271526;22;20084;-89
2023/01/09 11:26:46;;;;;;;15.20;2.63;;;8.90;99.90;;;;;;6271530;22;20004;-90
2023/01/09 11:29:13;;;;;;;12.70;2.83;;;9.00;99.90;;;;;;6271268;22;20007;-89
2023/01/09 11:31:51;;;;;;;10.80;2.15;;;9.10;99.90;;;;;;6271771;22;20003;-90
2023/01/09 11:34:46;;;;;;;10.15;2.53;;;9.00;99.90;;;;;;6271276;22;20007;-90
2023/01/09 11:37:17;;;;;;;18.10;3.00;;;9.20;99.90;;;;;;6247272;22;20026;-90
2023/01/09 11:39:46;;;;;;;12.88;2.50;;;9.20;99.90;;;;;;6271081;22;20043;-88
2023/01/09 11:45:18;;;;;;;15.02;2.22;;;9.50;99.90;;;;;;6272449;22;20152;-89
2023/01/09 11:47:44;;;;;;;15.60;3.70;;;9.60;99.90;;;;;;6271469;22;20004;-89
2023/01/09 11:50:21;;;;;;;18.52;3.42;;;9.80;99.90;;;;;;6271144;22;20122;-89
2023/01/09 11:53:14;;;;;;;12.10;3.03;;;10.00;99.90;;;;;;6270886;22;20004;-89
2023/01/09 11:55:43;;;;;;;15.20;3.05;;;10.20;99.90;;;;;;6270861;22;20007;-91
2023/01/09 11:58:18;;;;;;;16.38;3.38;;;10.10;99.90;;;;;;6272188;22;20061;-89
2023/01/09 12:00:53;;;;;;;17.13;3.30;;;10.00;99.90;;;;;;6271271;22;20347;-89
2023/01/09 12:03:40;;;;;;;18.00;3.22;;;9.80;99.90;;;;;;6271401;22;20769;-90
2023/01/09 12:06:26;;;;;;;10.73;2.70;;;9.70;99.90;;;;;;6271587;22;20011;-91
2023/01/09 12:09:06;;;;;;;9.18;2.15;;;9.70;99.90;;;;;;6274226;22;20428;-90
2023/01/09 12:11:41;;;;;;;12.35;1.88;;;9.60;99.90;;;;;;6274043;22;20042;-89
2023/01/09 12:14:33;;;;;;;11.50;2.92;;;9.40;99.90;;;;;;6270672;22;20053;-90
2023/01/09 12:17:08;;;;;;;11.65;2.08;;;9.30;99.90;;;;;;6274298;22;20031;-89
2023/01/09 12:19:52;;;;;;;8.02;1.83;;;9.50;99.90;;;;;;6273155;22;20470;-88
2023/01/09 12:23:00;;;;;;;5.88;1.67;;;9.60;99.90;;;;;;6273087;22;20004;-89
2023/01/09 12:25:44;;;;;;;;;;;9.60;99.90;;;;;;6274128;22;20011;-90
2023/01/09 12:28:13;;;;;;;5.68;1.60;;;9.60;99.90;;;;;;6274402;22;19906;-89
2023/01/09 12:30:42;;;;;;;;;;;9.40;99.90;;;;;;6273216;22;20008;-89
2023/01/09 12:33:24;;;;;;;5.70;1.42;;;9.30;99.90;;;;;;6274113;22;19905;-90
2023/01/09 12:36:12;;;;;;;4.28;1.30;;;9.10;99.90;;;;;;6272853;22;20008;-90
2023/01/09 12:38:47;;;;;;;2.85;1.30;;;9.20;99.90;;;;;;6279377;22;20014;-89
2023/01/09 12:41:27;;;;;;;5.10;1.15;;;9.20;99.90;;;;;;6301975;22;20038;-90
2023/01/09 12:43:56;;;;;;;3.78;1.15;;;9.20;99.90;;;;;;6301097;22;19996;-88
2023/01/09 12:46:25;;;;;;;6.20;1.73;;;8.90;99.90;;;;;;6292768;22;20016;-91
2023/01/09 12:49:04;;;;;;;5.57;1.52;;;8.80;99.90;;;;;;6279013;22;20004;-89
2023/01/09 12:51:36;;;;;;;7.15;1.67;;;8.80;99.90;;;;;;6274051;22;20007;-90
2023/01/09 12:54:38;;;;;;;8.77;2.15;;;8.70;99.90;;;;;;6272820;22;20004;-89
2023/01/09 12:57:18;;;;;;;8.30;1.88;;;8.60;99.90;;;;;;6272802;22;20008;-89
2023/01/09 12:59:56;;;;;;;7.00;1.73;;;8.60;99.90;;;;;;6274239;22;20034;-89
2023/01/09 13:02:35;;;;;;;9.90;1.70;;;8.70;99.90;;;;;;6272510;22;20531;-90
2023/01/09 13:05:17;;;;;;;12.25;1.98;;;8.70;99.90;;;;;;6275181;22;20227;-89
2023/01/09 13:08:02;;;;;;;10.43;2.03;;;8.90;99.90;;;;;;6272370;22;20030;-89
2023/01/09 13:10:38;;;;;;;6.25;1.70;;;9.10;99.90;;;;;;6273360;22;20090;-89
2023/01/09 13:13:21;;;;;;;9.40;2.10;;;9.20;99.90;;;;;;6272662;22;20004;-88
2023/01/09 13:15:53;;;;;;;10.25;2.22;;;9.40;99.90;;;;;;6272201;22;20007;-89
2023/01/09 13:18:26;;;;;;;11.00;2.50;;;9.50;99.90;;;;;;6272342;22;20003;-89
2023/01/09 13:20:56;;;;;;;7.72;1.60;;;9.30;99.90;;;;;;6273987;22;20004;-88
2023/01/09 13:23:43;;;;;;;7.13;1.58;;;9.30;99.90;;;;;;6274115;22;20008;-88
2023/01/09 13:26:23;;;;;;;6.85;1.85;;;9.20;99.90;;;;;;6246157;22;20007;-89
2023/01/09 13:28:59;;;;;;;7.15;1.70;;;9.00;99.90;;;;;;6246719;22;20436;-89
2023/01/09 13:31:42;;;;;;;11.88;3.28;;;9.00;99.90;;;;;;6246187;22;20018;-90
2023/01/09 13:34:19;;;;;;;9.48;2.13;;;9.00;99.90;;;;;;6246759;22;20007;-89
2023/01/09 13:36:48;;;;;;;9.35;1.77;;;9.00;99.90;;;;;;6246828;22;20019;-89
2023/01/09 13:39:31;;;;;;;14.45;2.25;;;9.00;99.90;;;;;;6246692;22;20387;-90
2023/01/09 13:44:51;;;;;;;15.82;3.00;;;9.10;99.90;;;;;;6273195;22;20007;-90
2023/01/09 13:47:27;;;;;;;9.18;2.40;;;9.20;99.90;;;;;;6246552;22;20090;-88
2023/01/09 13:50:00;;;;;;;13.48;2.08;;;9.40;99.90;;;;;;6246880;22;20392;-89